Time;durP1;ratioP1;P1;durP2;ratioP2;P2;SDS_P1;SDS_P2;PMS_P1;PMS_P2;Temp;Humidity;BMP_temperature;BMP_pressure;BME280_temperature;BME280_humidity;BME280_pressure;Samples;Min_cycle;Max_cycle;Signal;HPM_P1;HPM_P2
2023/12/17 00:01:36;;;;;;;4.93;2.40;;;;;0.00;98968.00;;;;5028044;28;20975;-67
2023/12/17 00:04:25;;;;;;;2.77;1.70;;;;;0.20;98973.00;;;;5022512;28;20451;-66
2023/12/17 00:07:16;;;;;;;4.30;2.17;;;;;0.30;98963.00;;;;5025370;28;20975;-67
2023/12/17 00:10:06;;;;;;;4.23;2.23;;;;;0.00;98969.00;;;;5020693;28;20416;-67
2023/12/17 00:12:55;;;;;;;6.40;3.13;;;;;0.10;98971.00;;;;5027185;28;20440;-67
2023/12/17 00:15:44;;;;;;;7.57;3.63;;;;;0.10;98971.00;;;;5027658;28;20818;-67
2023/12/17 00:18:34;;;;;;;2.40;1.37;;;;;0.00;98973.00;;;;5025476;28;20588;-67
2023/12/17 00:21:23;;;;;;;4.20;2.30;;;;;-0.50;98960.00;;;;5023400;28;20436;-67
2023/12/17 00:24:13;;;;;;;4.27;2.10;;;;;-0.10;98962.00;;;;5026748;28;20440;-67
2023/12/17 00:27:03;;;;;;;3.70;1.87;;;;;0.40;98973.00;;;;5022927;28;20428;-67
2023/12/17 00:29:52;;;;;;;6.70;3.07;;;;;0.20;98965.00;;;;5029188;28;20443;-66
2023/12/17 00:32:41;;;;;;;7.53;3.50;;;;;-0.40;98962.00;;;;5031427;28;20963;-67
2023/12/17 00:35:30;;;;;;;5.40;2.60;;;;;-1.10;98948.00;;;;5055894;23;20593;-74
2023/12/17 00:38:19;;;;;;;5.57;2.60;;;;;-0.40;98955.00;;;;5029365;28;20494;-73
2023/12/17 00:41:10;;;;;;;5.07;2.40;;;;;0.00;98958.00;;;;5022465;28;20443;-72
2023/12/17 00:43:59;;;;;;;2.70;1.37;;;;;-0.20;98947.00;;;;5025970;28;20450;-73
2023/12/17 00:46:48;;;;;;;7.03;3.27;;;;;-0.10;98957.00;;;;5029731;28;20412;-73
2023/12/17 00:49:37;;;;;;;5.97;2.73;;;;;-0.40;98949.00;;;;5032143;28;21191;-72
2023/12/17 00:52:26;;;;;;;3.50;1.83;;;;;-0.80;98941.00;;;;5030772;28;20424;-73
2023/12/17 00:55:15;;;;;;;3.63;1.80;;;;;-0.40;98937.00;;;;5028831;28;20448;-72
2023/12/17 00:58:06;;;;;;;5.30;2.43;;;;;-0.60;98920.00;;;;5028550;28;20476;-72
2023/12/17 01:00:55;;;;;;;5.43;2.53;;;;;-0.30;98906.00;;;;5029421;28;20436;-72
2023/12/17 01:03:44;;;;;;;8.77;3.80;;;;;0.00;98923.00;;;;5028295;28;20515;-72
2023/12/17 01:06:33;;;;;;;4.57;2.17;;;;;0.20;98936.00;;;;5031089;28;20432;-72
2023/12/17 01:09:22;;;;;;;4.03;1.97;;;;;0.00;98944.00;;;;5028584;28;20448;-72
2023/12/17 01:12:11;;;;;;;3.70;1.87;;;;;-0.60;98942.00;;;;5025853;28;20424;-72
2023/12/17 01:15:02;;;;;;;3.37;1.67;;;;;-0.70;98938.00;;;;5031303;28;20436;-72
2023/12/17 01:17:51;;;;;;;7.60;3.67;;;;;-0.60;98952.00;;;;5030239;28;20858;-73
2023/12/17 01:20:41;;;;;;;8.80;3.77;;;;;-0.50;98950.00;;;;5025285;28;20416;-73
2023/12/17 01:23:30;;;;;;;3.63;1.90;;;;;-0.80;98939.00;;;;5030197;28;20832;-73
2023/12/17 01:26:20;;;;;;;3.70;1.90;;;;;-0.70;98936.00;;;;5031332;28;20825;-73
2023/12/17 01:29:09;;;;;;;4.17;2.07;;;;;-0.40;98944.00;;;;5029136;28;20417;-74
2023/12/17 01:31:59;;;;;;;5.70;2.63;;;;;-0.40;98937.00;;;;5029678;28;20439;-73
2023/12/17 01:34:49;;;;;;;5.07;2.43;;;;;-0.40;98938.00;;;;5030927;28;20475;-71
2023/12/17 01:37:38;;;;;;;4.53;2.23;;;;;-0.10;98940.00;;;;5031055;28;20463;-71
2023/12/17 01:40:27;;;;;;;4.70;2.23;;;;;-0.10;98949.00;;;;5030792;28;20439;-72
2023/12/17 01:43:16;;;;;;;6.23;2.70;;;;;-0.30;98932.00;;;;5026591;28;20429;-70
2023/12/17 01:46:06;;;;;;;4.10;2.00;;;;;-0.40;98932.00;;;;5026675;28;20819;-71
2023/12/17 01:48:56;;;;;;;3.40;1.53;;;;;-0.30;98933.00;;;;5030495;28;20415;-72
2023/12/17 01:51:45;;;;;;;9.93;4.37;;;;;-0.30;98926.00;;;;5036415;28;20474;-71
2023/12/17 01:54:35;;;;;;;5.30;2.53;;;;;-0.60;98935.00;;;;5030378;28;20953;-71
2023/12/17 01:57:24;;;;;;;3.70;1.87;;;;;-1.10;98928.00;;;;5024808;28;20486;-73
2023/12/17 02:00:14;;;;;;;2.37;1.33;;;;;-0.90;98940.00;;;;5031020;28;20799;-71
2023/12/17 02:03:04;;;;;;;4.70;2.07;;;;;-1.20;98926.00;;;;5025217;28;20451;-71
2023/12/17 02:05:55;;;;;;;11.50;5.03;;;;;-1.20;98929.00;;;;5028642;28;20467;-72
2023/12/17 02:08:44;;;;;;;6.47;3.07;;;;;-0.90;98931.00;;;;5026144;28;20425;-71
2023/12/17 02:11:33;;;;;;;5.33;2.57;;;;;-0.70;98918.00;;;;5029669;28;20420;-71
2023/12/17 02:14:22;;;;;;;4.27;2.17;;;;;-0.70;98926.00;;;;5027567;28;20455;-72
2023/12/17 02:17:12;;;;;;;4.27;2.23;;;;;-0.60;98920.00;;;;5024728;28;20417;-71
2023/12/17 02:20:01;;;;;;;4.83;2.33;;;;;-0.70;98910.00;;;;5030491;28;20438;-71
2023/12/17 02:22:56;;;;;;;10.73;4.93;;;;;-0.90;98908.00;;;;5023758;28;20444;-73
2023/12/17 02:25:47;;;;;;;7.90;3.63;;;;;-0.60;98896.00;;;;5029865;28;20440;-72
2023/12/17 02:28:36;;;;;;;4.93;2.47;;;;;-1.20;98882.00;;;;5026722;28;20790;-70
2023/12/17 02:31:25;;;;;;;4.87;2.40;;;;;-1.40;98881.00;;;;5029847;28;20455;-72
2023/12/17 02:34:14;;;;;;;4.30;2.40;;;;;-1.40;98877.00;;;;5030224;28;20447;-73
2023/12/17 02:37:03;;;;;;;5.87;2.67;;;;;-0.70;98873.00;;;;5022618;28;20819;-71
2023/12/17 02:39:52;;;;;;;10.03;4.70;;;;;-0.90;98866.00;;;;5025143;28;20413;-72
2023/12/17 02:42:43;;;;;;;7.80;3.50;;;;;-1.00;98875.00;;;;5027479;28;20937;-73
2023/12/17 02:45:32;;;;;;;4.23;2.03;;;;;-0.70;98869.00;;;;5029657;28;20471;-73
2023/12/17 02:48:21;;;;;;;4.30;2.00;;;;;-0.90;98866.00;;;;5029679;28;20436;-72
2023/12/17 02:51:10;;;;;;;4.37;2.20;;;;;-0.60;98868.00;;;;5030172;28;20480;-72
2023/12/17 02:53:59;;;;;;;4.47;2.37;;;;;-0.30;98869.00;;;;5029274;28;20451;-72
2023/12/17 02:56:48;;;;;;;7.87;3.67;;;;;0.10;98877.00;;;;5028455;28;20426;-73
2023/12/17 02:59:41;;;;;;;3.90;2.03;;;;;-0.40;98877.00;;;;5029010;28;20482;-72
2023/12/17 03:02:30;;;;;;;5.07;2.53;;;;;-0.40;98872.00;;;;5024994;28;20435;-72
2023/12/17 03:05:19;;;;;;;3.70;1.87;;;;;-0.50;98878.00;;;;5023880;28;20828;-72
2023/12/17 03:08:09;;;;;;;4.30;2.20;;;;;-0.10;98884.00;;;;5021234;28;20566;-73
2023/12/17 03:10:58;;;;;;;4.80;2.37;;;;;-0.30;98878.00;;;;5026826;28;20927;-73
2023/12/17 03:13:47;;;;;;;7.40;3.50;;;;;-0.80;98862.00;;;;5027516;28;20424;-74
2023/12/17 03:16:38;;;;;;;7.73;3.67;;;;;-0.50;98872.00;;;;5026861;28;20440;-74
2023/12/17 03:19:27;;;;;;;5.13;2.60;;;;;-0.10;98873.00;;;;5028300;28;21007;-74
2023/12/17 03:22:16;;;;;;;4.40;2.20;;;;;-0.10;98877.00;;;;5025885;28;20439;-73
2023/12/17 03:25:06;;;;;;;4.27;2.13;;;;;-0.40;98862.00;;;;5021805;28;20445;-74
2023/12/17 03:27:55;;;;;;;7.00;3.43;;;;;-0.20;98870.00;;;;5023057;28;20478;-74
2023/12/17 03:30:44;;;;;;;8.17;3.80;;;;;-0.30;98860.00;;;;5027446;28;20416;-73
2023/12/17 03:33:35;;;;;;;4.63;2.30;;;;;-0.10;98859.00;;;;5029012;28;20424;-74
2023/12/17 03:36:24;;;;;;;4.33;2.30;;;;;0.10;98863.00;;;;5023713;28;20428;-73
2023/12/17 03:39:13;;;;;;;4.63;2.27;;;;;-0.10;98860.00;;;;5022756;28;20464;-73
2023/12/17 03:42:03;;;;;;;5.20;2.63;;;;;-0.30;98836.00;;;;5028012;28;20436;-73
2023/12/17 03:44:52;;;;;;;6.80;3.27;;;;;-0.40;98840.00;;;;5027836;28;20854;-73
2023/12/17 03:47:47;;;;;;;7.47;3.50;;;;;-0.80;98835.00;;;;5028610;28;20434;-71
2023/12/17 03:50:38;;;;;;;4.07;2.07;;;;;-0.60;98840.00;;;;5035302;28;20777;-72
2023/12/17 03:53:27;;;;;;;2.87;1.60;;;;;-0.20;98843.00;;;;5022678;28;20425;-73
2023/12/17 03:56:17;;;;;;;3.70;1.93;;;;;-0.60;98837.00;;;;5024016;28;20431;-73
2023/12/17 03:59:06;;;;;;;3.10;1.63;;;;;-1.00;98838.00;;;;5021102;28;20463;-74
2023/12/17 04:01:57;;;;;;;5.87;3.10;;;;;-1.10;98825.00;;;;5027792;28;20440;-72
2023/12/17 04:04:46;;;;;;;7.17;3.50;;;;;-1.20;98813.00;;;;5027893;28;20829;-70
2023/12/17 04:07:37;;;;;;;3.87;2.13;;;;;-0.80;98832.00;;;;5027189;28;20447;-72
2023/12/17 04:10:26;;;;;;;2.73;1.60;;;;;-0.60;98822.00;;;;5022579;28;20998;-72
2023/12/17 04:13:15;;;;;;;2.47;1.47;;;;;-0.20;98819.00;;;;5022379;28;20933;-72
2023/12/17 04:16:05;;;;;;;4.27;2.20;;;;;-0.20;98818.00;;;;5028032;28;20423;-72
2023/12/17 04:18:54;;;;;;;5.50;2.87;;;;;-0.30;98823.00;;;;5027843;28;20494;-73
2023/12/17 04:21:43;;;;;;;5.73;2.83;;;;;-1.10;98811.00;;;;5027902;28;21227;-72
2023/12/17 04:24:34;;;;;;;4.00;2.27;;;;;-1.10;98797.00;;;;5027748;28;20448;-72
2023/12/17 04:27:23;;;;;;;3.40;2.00;;;;;-0.90;98802.00;;;;5026605;28;21233;-72
2023/12/17 04:30:12;;;;;;;4.13;2.20;;;;;-1.00;98797.00;;;;5022083;28;20428;-71
2023/12/17 04:33:02;;;;;;;5.00;2.80;;;;;-0.40;98801.00;;;;5027463;28;20502;-71
2023/12/17 04:35:51;;;;;;;7.47;3.60;;;;;-0.40;98806.00;;;;5027111;28;20468;-71
2023/12/17 04:38:41;;;;;;;4.73;2.57;;;;;-0.10;98814.00;;;;5027117;28;20476;-72
2023/12/17 04:41:33;;;;;;;5.90;2.70;;;;;-0.40;98796.00;;;;5027985;28;20846;-72
2023/12/17 04:44:22;;;;;;;3.47;2.07;;;;;-0.80;98786.00;;;;5022462;28;20973;-70
2023/12/17 04:47:11;;;;;;;3.77;2.07;;;;;-0.30;98787.00;;;;5026967;28;20431;-72
2023/12/17 04:50:00;;;;;;;4.50;2.30;;;;;-0.50;98786.00;;;;5029287;28;20421;-72
2023/12/17 04:52:49;;;;;;;8.57;3.90;;;;;-0.30;98787.00;;;;5028217;28;20432;-73
2023/12/17 04:55:39;;;;;;;4.93;2.47;;;;;-0.70;98799.00;;;;5028093;28;20463;-72
2023/12/17 04:58:29;;;;;;;3.70;2.07;;;;;-0.70;98793.00;;;;5027887;28;20432;-72
2023/12/17 05:01:18;;;;;;;4.43;2.37;;;;;-0.60;98798.00;;;;5025497;28;20421;-72
2023/12/17 05:04:08;;;;;;;3.73;2.00;;;;;-0.20;98802.00;;;;5021472;28;20969;-71
2023/12/17 05:06:57;;;;;;;6.27;3.37;;;;;0.00;98808.00;;;;5027901;28;20432;-71
2023/12/17 05:09:46;;;;;;;6.47;3.07;;;;;0.00;98806.00;;;;5035768;28;20428;-72
2023/12/17 05:12:35;;;;;;;3.93;2.07;;;;;0.00;98801.00;;;;5025196;28;20448;-72
2023/12/17 05:15:25;;;;;;;1.53;0.97;;;;;-1.00;98784.00;;;;5024763;28;20444;-72
2023/12/17 05:18:15;;;;;;;4.10;2.10;;;;;-0.80;98783.00;;;;5031538;28;20420;-72
2023/12/17 05:21:05;;;;;;;4.53;2.30;;;;;-0.40;98792.00;;;;5022049;28;20945;-72
2023/12/17 05:23:54;;;;;;;7.07;3.47;;;;;-0.40;98784.00;;;;5027226;28;20779;-71
2023/12/17 05:26:43;;;;;;;7.40;3.30;;;;;-0.60;98772.00;;;;5023971;28;20443;-73
2023/12/17 05:29:32;;;;;;;4.13;2.13;;;;;-0.10;98781.00;;;;5034610;28;20431;-73
2023/12/17 05:32:22;;;;;;;5.07;2.43;;;;;-0.10;98800.00;;;;5031285;28;20494;-72
2023/12/17 05:35:12;;;;;;;4.37;2.07;;;;;0.10;98782.00;;;;5020068;28;20494;-71
2023/12/17 05:38:01;;;;;;;4.63;2.30;;;;;-0.40;98771.00;;;;5030675;28;20468;-71
2023/12/17 05:40:50;;;;;;;9.63;4.23;;;;;-0.60;98762.00;;;;5028162;28;20463;-72
2023/12/17 05:43:39;;;;;;;5.00;2.30;;;;;-0.40;98766.00;;;;5030843;28;20510;-71
2023/12/17 05:46:28;;;;;;;7.23;3.20;;;;;0.10;98785.00;;;;5030132;28;20813;-71
2023/12/17 05:49:18;;;;;;;5.23;2.50;;;;;0.10;98762.00;;;;5028097;28;20433;-72
2023/12/17 05:52:09;;;;;;;3.33;1.60;;;;;0.10;98757.00;;;;5034638;28;20435;-71
2023/12/17 05:54:58;;;;;;;3.93;1.87;;;;;0.50;98756.00;;;;5030680;28;21752;-71
2023/12/17 05:57:49;;;;;;;7.97;3.43;;;;;0.50;98769.00;;;;5031388;28;20945;-71
2023/12/17 06:00:39;;;;;;;4.77;2.13;;;;;0.40;98760.00;;;;5027058;28;20526;-70
2023/12/17 06:03:28;;;;;;;5.03;2.40;;;;;0.40;98751.00;;;;5025219;28;20792;-71
2023/12/17 06:06:19;;;;;;;6.30;2.70;;;;;0.50;98764.00;;;;5029021;28;20424;-71
2023/12/17 06:09:08;;;;;;;5.23;2.30;;;;;0.30;98762.00;;;;5025734;28;20801;-71
2023/12/17 06:11:57;;;;;;;7.90;3.53;;;;;0.30;98756.00;;;;5032172;28;20971;-72
2023/12/17 06:14:46;;;;;;;10.17;4.07;;;;;0.30;98770.00;;;;5027590;28;20452;-72
2023/12/17 06:17:35;;;;;;;4.47;2.07;;;;;0.30;98775.00;;;;5028800;28;20441;-70
2023/12/17 06:20:25;;;;;;;5.50;2.50;;;;;0.40;98769.00;;;;5027069;28;20550;-72
2023/12/17 06:23:17;;;;;;;5.97;2.67;;;;;0.40;98782.00;;;;5029495;28;20435;-71
2023/12/17 06:26:06;;;;;;;4.60;2.10;;;;;0.50;98767.00;;;;5022380;28;20424;-72
2023/12/17 06:28:55;;;;;;;7.20;3.20;;;;;0.70;98775.00;;;;5028757;28;20437;-72
2023/12/17 06:31:44;;;;;;;8.53;3.37;;;;;0.70;98784.00;;;;5026583;28;20416;-70
2023/12/17 06:34:33;;;;;;;6.23;2.43;;;;;0.50;98782.00;;;;5050358;22;20484;-74
2023/12/17 06:37:23;;;;;;;4.83;2.03;;;;;0.20;98793.00;;;;5044379;28;20816;-73
2023/12/17 06:40:16;;;;;;;6.23;2.60;;;;;0.50;98800.00;;;;5048722;28;21017;-73
2023/12/17 06:43:06;;;;;;;2.33;1.20;;;;;0.50;98811.00;;;;5053783;28;20428;-73
2023/12/17 06:45:56;;;;;;;7.60;3.13;;;;;0.20;98795.00;;;;5048667;28;20972;-73
2023/12/17 06:48:45;;;;;;;9.93;3.77;;;;;0.10;98799.00;;;;5046469;28;20426;-73
2023/12/17 06:51:38;;;;;;;8.03;3.20;;;;;0.20;98803.00;;;;5047851;28;20435;-74
2023/12/17 06:54:27;;;;;;;5.23;2.30;;;;;0.60;98822.00;;;;5039556;28;20858;-73
2023/12/17 06:57:18;;;;;;;6.27;2.63;;;;;0.60;98823.00;;;;5046540;28;20421;-73
2023/12/17 07:00:08;;;;;;;6.13;2.43;;;;;0.10;98813.00;;;;5046711;28;21031;-73
2023/12/17 07:02:59;;;;;;;11.77;4.70;;;;;0.20;98823.00;;;;5043740;28;20435;-73
2023/12/17 07:05:49;;;;;;;11.37;4.30;;;;;-0.10;98824.00;;;;5050642;28;21295;-73
2023/12/17 07:08:38;;;;;;;4.77;2.17;;;;;-0.50;98809.00;;;;5053543;28;20434;-73
2023/12/17 07:11:27;;;;;;;5.37;2.27;;;;;-0.10;98815.00;;;;5054105;28;20992;-73
2023/12/17 07:14:17;;;;;;;3.90;1.87;;;;;-0.30;98812.00;;;;5060971;28;20826;-73
2023/12/17 07:17:06;;;;;;;7.57;3.07;;;;;-0.30;98816.00;;;;5053209;28;20437;-72
2023/12/17 07:19:56;;;;;;;8.50;3.50;;;;;-0.10;98842.00;;;;5052252;28;20815;-73
2023/12/17 07:22:45;;;;;;;14.60;5.57;;;;;0.30;98834.00;;;;5053336;28;20437;-73
2023/12/17 07:25:34;;;;;;;5.33;2.40;;;;;0.80;98830.00;;;;5058688;28;21065;-72
2023/12/17 07:28:23;;;;;;;5.90;2.50;;;;;0.70;98824.00;;;;5050124;28;20820;-73
2023/12/17 07:31:13;;;;;;;6.23;2.60;;;;;0.40;98829.00;;;;5048200;28;20455;-74
2023/12/17 07:34:03;;;;;;;5.73;2.50;;;;;0.60;98824.00;;;;5044476;28;20447;-72
2023/12/17 07:36:52;;;;;;;11.03;4.53;;;;;-0.20;98817.00;;;;5039063;28;20504;-71
2023/12/17 07:39:41;;;;;;;5.97;2.67;;;;;-0.10;98820.00;;;;5050400;28;20430;-72
2023/12/17 07:42:30;;;;;;;5.20;2.37;;;;;-0.70;98808.00;;;;5046380;28;20443;-72
2023/12/17 07:45:19;;;;;;;4.70;2.07;;;;;-0.40;98823.00;;;;5054161;28;20474;-71
2023/12/17 07:48:10;;;;;;;5.23;2.30;;;;;0.40;98838.00;;;;5046266;28;20442;-70
2023/12/17 07:51:01;;;;;;;9.40;4.00;;;;;0.50;98849.00;;;;5044522;28;20459;-73
2023/12/17 07:53:50;;;;;;;10.93;4.30;;;;;0.70;98836.00;;;;5039210;28;20877;-72
2023/12/17 07:56:39;;;;;;;7.23;2.83;;;;;0.60;98842.00;;;;5050503;28;20450;-73
2023/12/17 07:59:28;;;;;;;6.67;2.63;;;;;1.50;98833.00;;;;5041384;28;20452;-73
2023/12/17 08:02:17;;;;;;;6.03;2.40;;;;;1.40;98841.00;;;;5041984;28;20442;-73
2023/12/17 08:05:09;;;;;;;7.20;2.97;;;;;2.10;98841.00;;;;5044329;28;20455;-73
2023/12/17 08:07:58;;;;;;;9.93;4.13;;;;;2.00;98842.00;;;;5042268;28;21188;-73
2023/12/17 08:10:47;;;;;;;11.47;4.30;;;;;2.10;98842.00;;;;5039656;28;20427;-74
2023/12/17 08:13:36;;;;;;;4.13;1.77;;;;;2.10;98844.00;;;;5037259;28;20428;-74
2023/12/17 08:16:27;;;;;;;5.77;2.40;;;;;2.30;98839.00;;;;5046040;28;20844;-73
2023/12/17 08:19:16;;;;;;;6.20;2.50;;;;;2.30;98853.00;;;;5047203;28;20439;-74
2023/12/17 08:22:07;;;;;;;4.37;1.80;;;;;1.40;98832.00;;;;5059043;28;20525;-72
2023/12/17 08:24:56;;;;;;;10.67;4.30;;;;;1.60;98842.00;;;;5051088;28;20462;-72
2023/12/17 08:27:45;;;;;;;7.00;2.80;;;;;1.60;98838.00;;;;5048148;28;20497;-73
2023/12/17 08:30:34;;;;;;;7.77;3.07;;;;;2.00;98851.00;;;;5044200;28;20439;-74
2023/12/17 08:33:23;;;;;;;5.10;2.10;;;;;2.20;98855.00;;;;5053908;28;20435;-74
2023/12/17 08:36:12;;;;;;;4.73;2.00;;;;;1.30;98852.00;;;;5061369;28;20454;-73
2023/12/17 08:39:05;;;;;;;3.87;1.67;;;;;1.00;98839.00;;;;5049549;28;20436;-73
2023/12/17 08:41:55;;;;;;;13.47;5.13;;;;;0.60;98833.00;;;;5044603;28;20483;-72
2023/12/17 08:44:44;;;;;;;8.50;3.37;;;;;1.00;98844.00;;;;5050488;28;20451;-73
2023/12/17 08:47:33;;;;;;;5.00;2.13;;;;;1.40;98840.00;;;;5051105;28;20435;-71
2023/12/17 08:50:22;;;;;;;5.90;2.43;;;;;1.60;98843.00;;;;5045065;28;20431;-72
2023/12/17 08:53:11;;;;;;;5.90;2.53;;;;;1.00;98829.00;;;;5048721;28;20434;-73
2023/12/17 08:56:03;;;;;;;5.10;2.00;;;;;1.40;98827.00;;;;5048243;28;20923;-71
2023/12/17 08:58:52;;;;;;;9.53;3.77;;;;;1.60;98830.00;;;;5049542;28;20438;-71
2023/12/17 09:01:41;;;;;;;9.03;3.37;;;;;1.50;98837.00;;;;5049477;28;20877;-73
2023/12/17 09:04:31;;;;;;;4.97;2.00;;;;;2.20;98848.00;;;;5054980;28;20439;-74
2023/12/17 09:07:20;;;;;;;5.07;2.07;;;;;2.90;98844.00;;;;5050222;28;20423;-72
2023/12/17 09:10:10;;;;;;;8.17;3.10;;;;;3.00;98852.00;;;;5050428;28;20490;-73
2023/12/17 09:13:00;;;;;;;10.93;4.20;;;;;3.10;98844.00;;;;5055652;28;20431;-73
2023/12/17 09:15:49;;;;;;;10.30;3.73;;;;;3.30;98840.00;;;;5054580;28;20797;-73
2023/12/17 09:18:39;;;;;;;6.33;2.37;;;;;3.40;98852.00;;;;5060455;28;20445;-72
2023/12/17 09:21:28;;;;;;;8.07;3.07;;;;;2.50;98849.00;;;;5049406;28;21017;-73
2023/12/17 09:24:17;;;;;;;9.10;3.43;;;;;2.10;98835.00;;;;5049059;28;20470;-73
2023/12/17 09:27:06;;;;;;;7.50;2.80;;;;;2.40;98831.00;;;;5048652;28;20436;-72
2023/12/17 09:29:57;;;;;;;13.73;5.23;;;;;2.70;98834.00;;;;5049398;28;20435;-72
2023/12/17 09:32:46;;;;;;;14.00;5.07;;;;;2.60;98827.00;;;;5047390;28;20442;-73
2023/12/17 09:35:38;;;;;;;6.63;2.70;;;;;2.90;98829.00;;;;5047940;28;21003;-74
2023/12/17 09:38:27;;;;;;;5.87;2.43;;;;;2.90;98819.00;;;;5048692;28;20434;-72
2023/12/17 09:41:16;;;;;;;7.10;2.67;;;;;3.20;98812.00;;;;5046703;28;20988;-72
2023/12/17 09:44:06;;;;;;;5.77;2.33;;;;;3.40;98818.00;;;;5050152;28;20808;-75
2023/12/17 09:46:56;;;;;;;12.07;4.63;;;;;3.10;98793.00;;;;5048417;28;20450;-71
2023/12/17 09:49:45;;;;;;;12.83;4.80;;;;;3.00;98795.00;;;;5048457;28;20420;-71
2023/12/17 09:52:36;;;;;;;7.13;2.77;;;;;3.20;98807.00;;;;5041213;28;20466;-74
2023/12/17 09:55:25;;;;;;;7.03;2.80;;;;;3.30;98797.00;;;;5050442;28;20475;-72
2023/12/17 09:58:14;;;;;;;6.27;2.47;;;;;3.90;98784.00;;;;5052495;28;20196;-73
2023/12/17 10:01:05;;;;;;;5.27;2.17;;;;;4.20;98803.00;;;;5048821;28;20212;-72
2023/12/17 10:03:58;;;;;;;9.40;3.50;;;;;4.10;98785.00;;;;5055469;28;20423;-73
2023/12/17 10:06:47;;;;;;;9.37;3.53;;;;;4.30;98798.00;;;;5043758;28;20443;-74
2023/12/17 10:09:37;;;;;;;6.67;2.60;;;;;4.70;98800.00;;;;5048507;28;20431;-75
2023/12/17 10:12:26;;;;;;;5.00;1.93;;;;;4.40;98796.00;;;;5053190;28;20744;-73
2023/12/17 10:15:16;;;;;;;9.00;3.13;;;;;4.60;98791.00;;;;5048427;28;20303;-73
2023/12/17 10:18:06;;;;;;;10.13;3.43;;;;;5.10;98798.00;;;;5039427;28;20207;-73
2023/12/17 10:20:57;;;;;;;14.30;4.90;;;;;5.80;98794.00;;;;5041766;28;20208;-74
2023/12/17 10:23:50;;;;;;;9.60;3.30;;;;;6.30;98791.00;;;;5047441;28;20205;-73
2023/12/17 10:26:44;;;;;;;9.77;3.37;;;;;6.20;98774.00;;;;5048906;28;20563;-73
2023/12/17 10:29:34;;;;;;;6.47;2.33;;;;;6.20;98782.00;;;;5041947;28;20204;-74
2023/12/17 10:32:26;;;;;;;7.13;2.60;;;;;6.00;98764.00;;;;5031863;28;20198;-74
2023/12/17 10:35:17;;;;;;;9.77;3.30;;;;;6.70;98771.00;;;;5033064;28;20294;-74
2023/12/17 10:38:10;;;;;;;6.17;2.27;;;;;7.20;98774.00;;;;5025165;28;20216;-75
2023/12/17 10:41:00;;;;;;;17.43;5.80;;;;;7.70;98775.00;;;;5026987;28;20212;-74
2023/12/17 10:43:49;;;;;;;15.30;4.93;;;;;8.40;98777.00;;;;5029175;28;20205;-75
2023/12/17 10:46:41;;;;;;;10.37;3.40;;;;;8.70;98777.00;;;;5029594;28;20201;-75
2023/12/17 10:49:30;;;;;;;7.80;2.70;;;;;8.40;98765.00;;;;5028724;28;20683;-74
2023/12/17 10:52:20;;;;;;;5.23;1.83;;;;;8.90;98768.00;;;;5032756;28;20840;-75
2023/12/17 10:55:11;;;;;;;14.23;4.70;;;;;8.30;98760.00;;;;5024628;28;20228;-75
2023/12/17 10:58:02;;;;;;;14.43;4.90;;;;;7.50;98748.00;;;;5026648;28;20209;-74
2023/12/17 11:00:52;;;;;;;16.03;5.17;;;;;8.40;98742.00;;;;5022414;28;20201;-75
2023/12/17 11:03:42;;;;;;;8.93;2.90;;;;;9.30;98747.00;;;;5037305;28;20263;-75
2023/12/17 11:06:31;;;;;;;12.17;3.90;;;;;10.20;98746.00;;;;5023603;28;20286;-75
2023/12/17 11:09:21;;;;;;;7.33;2.50;;;;;10.90;98750.00;;;;5035886;28;20231;-76
2023/12/17 11:12:12;;;;;;;7.77;2.67;;;;;10.90;98748.00;;;;5035802;28;20201;-76
2023/12/17 11:15:01;;;;;;;15.10;5.00;;;;;11.00;98741.00;;;;5036297;28;20741;-75
2023/12/17 11:17:54;;;;;;;16.20;5.03;;;;;11.40;98727.00;;;;5039250;28;20213;-75
2023/12/17 11:20:45;;;;;;;4.80;1.60;;;;;10.60;98734.00;;;;5034177;28;20201;-75
2023/12/17 11:23:35;;;;;;;7.90;2.53;;;;;11.10;98721.00;;;;5023032;28;20298;-76
2023/12/17 11:26:24;;;;;;;9.17;2.87;;;;;11.50;98728.00;;;;5026348;28;20204;-75
2023/12/17 11:29:35;;;;;;;8.23;2.63;;;;;11.80;98737.00;;;;5021482;28;20209;-76
2023/12/17 11:32:26;;;;;;;10.13;3.27;;;;;12.10;98725.00;;;;5028937;28;20205;-75
2023/12/17 11:35:16;;;;;;;9.47;2.93;;;;;11.80;98723.00;;;;5031250;28;20293;-76
2023/12/17 11:38:06;;;;;;;8.87;2.60;;;;;11.80;98727.00;;;;5027900;28;20201;-76
2023/12/17 11:40:55;;;;;;;18.87;5.43;;;;;11.00;98709.00;;;;5032432;28;20318;-75
2023/12/17 11:43:44;;;;;;;8.33;2.50;;;;;10.60;98703.00;;;;5033944;28;20218;-74
2023/12/17 11:46:35;;;;;;;13.77;3.77;;;;;11.60;98723.00;;;;5025535;28;20208;-75
2023/12/17 11:49:25;;;;;;;17.77;4.43;;;;;11.60;98706.00;;;;5027421;28;20208;-74
2023/12/17 11:52:15;;;;;;;13.60;3.47;;;;;11.60;98709.00;;;;5029605;28;20200;-75
2023/12/17 11:55:05;;;;;;;9.20;2.30;;;;;12.00;98712.00;;;;5025690;28;20598;-76
2023/12/17 11:58:01;;;;;;;21.93;5.37;;;;;12.50;98723.00;;;;5026741;28;20693;-76
2023/12/17 12:01:09;;;;;;;22.60;5.53;;;;;11.30;98696.00;;;;5025355;28;20197;-75
2023/12/17 12:04:00;;;;;;;28.17;7.03;;;;;12.00;98703.00;;;;5018636;28;20229;-74
2023/12/17 12:06:53;;;;;;;22.13;5.60;;;;;11.70;98697.00;;;;5018636;28;20224;-75
2023/12/17 12:09:42;;;;;;;7.87;2.17;;;;;12.10;98701.00;;;;5025799;28;20220;-75
2023/12/17 12:12:33;;;;;;;11.90;3.27;;;;;11.70;98696.00;;;;5021960;28;20209;-75
2023/12/17 12:15:22;;;;;;;12.47;3.77;;;;;12.00;98686.00;;;;5024959;28;21450;-76
2023/12/17 12:18:21;;;;;;;7.90;2.43;;;;;12.20;98695.00;;;;5028393;28;20216;-74
2023/12/17 12:21:18;;;;;;;6.80;2.20;;;;;11.30;98683.00;;;;5022678;28;20208;-74
2023/12/17 12:24:10;;;;;;;8.13;2.63;;;;;11.10;98678.00;;;;5023432;28;20274;-73
2023/12/17 12:27:04;;;;;;;14.87;5.13;;;;;11.80;98670.00;;;;5024207;28;20204;-75
2023/12/17 12:29:54;;;;;;;29.67;9.40;;;;;12.40;98688.00;;;;5022891;28;20193;-75
2023/12/17 12:32:44;;;;;;;9.70;3.07;;;;;12.50;98680.00;;;;5025569;28;20201;-76
2023/12/17 12:35:33;;;;;;;10.00;3.80;;;;;13.90;98681.00;;;;5064344;23;20248;-66
2023/12/17 12:38:26;;;;;;;2.43;0.97;;;;;12.90;98682.00;;;;5056724;28;20210;-66
2023/12/17 12:41:15;;;;;;;7.00;2.57;;;;;12.90;98688.00;;;;5050696;28;20204;-66
2023/12/17 12:44:05;;;;;;;12.23;4.50;;;;;13.50;98689.00;;;;5054396;28;20605;-65
2023/12/17 12:46:54;;;;;;;12.73;4.47;;;;;14.20;98691.00;;;;5034815;28;20197;-66
2023/12/17 12:49:44;;;;;;;10.10;3.50;;;;;13.00;98694.00;;;;5029038;28;20208;-65
2023/12/17 12:52:33;;;;;;;7.73;2.77;;;;;13.40;98691.00;;;;5026816;28;20201;-65
2023/12/17 12:55:23;;;;;;;7.03;2.50;;;;;15.20;98692.00;;;;5029869;28;20231;-65
2023/12/17 12:58:13;;;;;;;5.40;2.10;;;;;14.90;98690.00;;;;5029975;28;20197;-66
2023/12/17 13:01:02;;;;;;;13.50;4.90;;;;;14.90;98693.00;;;;5035277;28;20209;-66
2023/12/17 13:03:51;;;;;;;10.67;4.10;;;;;12.60;98673.00;;;;5036733;28;20248;-65
2023/12/17 13:06:41;;;;;;;13.43;4.90;;;;;12.30;98675.00;;;;5024312;28;20225;-66
2023/12/17 13:09:31;;;;;;;6.87;2.67;;;;;12.40;98678.00;;;;5037585;28;20302;-66
2023/12/17 13:12:22;;;;;;;5.27;2.13;;;;;11.40;98656.00;;;;5032844;28;20201;-66
2023/12/17 13:15:11;;;;;;;5.00;2.20;;;;;11.50;98668.00;;;;5033732;28;20908;-65
2023/12/17 13:18:00;;;;;;;16.80;6.37;;;;;11.40;98660.00;;;;5031938;28;20217;-67
2023/12/17 13:20:51;;;;;;;13.17;5.03;;;;;10.00;98652.00;;;;5031843;28;20216;-68
2023/12/17 13:23:40;;;;;;;7.33;2.97;;;;;10.70;98650.00;;;;5030644;28;20245;-65
2023/12/17 13:26:29;;;;;;;9.47;3.70;;;;;11.30;98665.00;;;;5033013;28;20220;-67
2023/12/17 13:29:20;;;;;;;11.17;4.40;;;;;10.50;98659.00;;;;5033579;28;20205;-65
2023/12/17 13:32:09;;;;;;;5.27;2.27;;;;;9.40;98658.00;;;;5032348;28;20208;-65
2023/12/17 13:34:58;;;;;;;8.83;3.90;;;;;10.60;98664.00;;;;5032493;28;20232;-65
2023/12/17 13:37:48;;;;;;;4.73;2.03;;;;;11.70;98668.00;;;;5030318;28;20208;-65
2023/12/17 13:40:37;;;;;;;6.53;2.73;;;;;11.00;98662.00;;;;5031522;28;20205;-66
2023/12/17 13:43:26;;;;;;;7.10;3.07;;;;;9.80;98658.00;;;;5029594;28;20236;-67
2023/12/17 13:46:17;;;;;;;4.37;2.00;;;;;10.00;98647.00;;;;5033243;28;20605;-66
2023/12/17 13:49:07;;;;;;;4.27;2.00;;;;;9.60;98647.00;;;;5028005;28;20220;-64
2023/12/17 13:51:56;;;;;;;9.57;4.20;;;;;8.90;98650.00;;;;5037695;28;20261;-67
2023/12/17 13:54:45;;;;;;;4.13;2.00;;;;;8.80;98650.00;;;;5031619;28;20623;-67
2023/12/17 13:57:36;;;;;;;5.37;2.30;;;;;9.20;98655.00;;;;5034599;28;20209;-65
2023/12/17 14:00:26;;;;;;;4.30;1.87;;;;;9.70;98661.00;;;;5037416;28;20208;-65
2023/12/17 14:03:16;;;;;;;2.90;1.37;;;;;9.30;98659.00;;;;5036430;28;20226;-67
2023/12/17 14:06:08;;;;;;;7.47;3.70;;;;;8.60;98653.00;;;;5037234;28;20216;-67
2023/12/17 14:08:57;;;;;;;6.03;2.80;;;;;9.60;98666.00;;;;5038518;28;20211;-66
2023/12/17 14:11:47;;;;;;;5.20;2.40;;;;;9.80;98675.00;;;;5024572;28;20212;-64
2023/12/17 14:14:38;;;;;;;6.70;2.93;;;;;9.20;98661.00;;;;5033131;28;20201;-66